sensor_id;sensor_type;location;lat;lon;timestamp;P1;durP1;ratioP1;P2;durP2;ratioP2
61096;SDS011;46977;50.936;6.908;2023-03-01T00:00:39;5.82;;;3.95;;
61096;SDS011;46977;50.936;6.908;2023-03-01T00:03:43;4.05;;;3.20;;
61096;SDS011;46977;50.936;6.908;2023-03-01T00:06:46;3.03;;;2.75;;
61096;SDS011;46977;50.936;6.908;2023-03-01T00:09:49;4.35;;;3.30;;
61096;SDS011;46977;50.936;6.908;2023-03-01T00:12:52;4.25;;;3.28;;
61096;SDS011;46977;50.936;6.908;2023-03-01T00:15:55;3.28;;;2.97;;
61096;SDS011;46977;50.936;6.908;2023-03-01T00:18:57;3.33;;;3.03;;
61096;SDS011;46977;50.936;6.908;2023-03-01T00:22:00;5.93;;;3.80;;
61096;SDS011;46977;50.936;6.908;2023-03-01T00:25:02;7.70;;;4.05;;
61096;SDS011;46977;50.936;6.908;2023-03-01T00:28:06;3.60;;;3.10;;
61096;SDS011;46977;50.936;6.908;2023-03-01T00:31:09;4.10;;;3.10;;
61096;SDS011;46977;50.936;6.908;2023-03-01T00:34:13;5.45;;;2.95;;
61096;SDS011;46977;50.936;6.908;2023-03-01T00:37:15;4.32;;;3.30;;
61096;SDS011;46977;50.936;6.908;2023-03-01T00:40:18;4.30;;;2.92;;
61096;SDS011;46977;50.936;6.908;2023-03-01T00:43:22;3.90;;;3.05;;
61096;SDS011;46977;50.936;6.908;2023-03-01T00:46:25;3.38;;;2.90;;
61096;SDS011;46977;50.936;6.908;2023-03-01T00:49:28;4.15;;;3.25;;
61096;SDS011;46977;50.936;6.908;2023-03-01T00:52:31;3.88;;;3.50;;
61096;SDS011;46977;50.936;6.908;2023-03-01T00:55:33;4.22;;;2.88;;
61096;SDS011;46977;50.936;6.908;2023-03-01T00:58:37;4.63;;;3.05;;
61096;SDS011;46977;50.936;6.908;2023-03-01T01:01:39;5.00;;;3.20;;
61096;SDS011;46977;50.936;6.908;2023-03-01T01:04:42;6.03;;;3.13;;
61096;SDS011;46977;50.936;6.908;2023-03-01T01:07:44;3.60;;;3.30;;
61096;SDS011;46977;50.936;6.908;2023-03-01T01:10:47;4.68;;;3.17;;
61096;SDS011;46977;50.936;6.908;2023-03-01T01:13:51;4.05;;;2.60;;
61096;SDS011;46977;50.936;6.908;2023-03-01T01:16:54;6.40;;;3.65;;
61096;SDS011;46977;50.936;6.908;2023-03-01T01:19:58;3.85;;;3.10;;
61096;SDS011;46977;50.936;6.908;2023-03-01T01:23:02;4.15;;;3.15;;
61096;SDS011;46977;50.936;6.908;2023-03-01T01:26:07;5.05;;;4.10;;
61096;SDS011;46977;50.936;6.908;2023-03-01T01:29:13;4.88;;;3.83;;
61096;SDS011;46977;50.936;6.908;2023-03-01T01:32:15;7.57;;;3.35;;
61096;SDS011;46977;50.936;6.908;2023-03-01T01:35:18;5.13;;;3.53;;
61096;SDS011;46977;50.936;6.908;2023-03-01T01:38:20;4.38;;;3.83;;
61096;SDS011;46977;50.936;6.908;2023-03-01T01:41:23;3.60;;;3.30;;
61096;SDS011;46977;50.936;6.908;2023-03-01T01:44:28;5.03;;;3.40;;
61096;SDS011;46977;50.936;6.908;2023-03-01T01:47:31;3.95;;;3.40;;
61096;SDS011;46977;50.936;6.908;2023-03-01T01:50:33;6.15;;;3.78;;
61096;SDS011;46977;50.936;6.908;2023-03-01T01:53:40;6.40;;;4.72;;
61096;SDS011;46977;50.936;6.908;2023-03-01T01:56:46;4.18;;;3.45;;
61096;SDS011;46977;50.936;6.908;2023-03-01T01:59:55;4.05;;;3.20;;
61096;SDS011;46977;50.936;6.908;2023-03-01T02:03:00;6.72;;;3.72;;
61096;SDS011;46977;50.936;6.908;2023-03-01T02:06:06;4.40;;;3.17;;
61096;SDS011;46977;50.936;6.908;2023-03-01T02:09:14;5.18;;;3.40;;
61096;SDS011;46977;50.936;6.908;2023-03-01T02:12:21;4.15;;;3.28;;
61096;SDS011;46977;50.936;6.908;2023-03-01T02:15:26;3.38;;;2.83;;
61096;SDS011;46977;50.936;6.908;2023-03-01T02:18:29;4.90;;;3.53;;
61096;SDS011;46977;50.936;6.908;2023-03-01T02:21:35;5.78;;;3.13;;
61096;SDS011;46977;50.936;6.908;2023-03-01T02:24:44;3.75;;;3.42;;
61096;SDS011;46977;50.936;6.908;2023-03-01T02:27:56;5.70;;;3.45;;
61096;SDS011;46977;50.936;6.908;2023-03-01T02:31:02;3.17;;;2.88;;
61096;SDS011;46977;50.936;6.908;2023-03-01T02:34:24;3.58;;;3.22;;
61096;SDS011;46977;50.936;6.908;2023-03-01T02:37:28;4.03;;;2.95;;
61096;SDS011;46977;50.936;6.908;2023-03-01T02:40:31;4.43;;;3.38;;
61096;SDS011;46977;50.936;6.908;2023-03-01T02:43:36;5.10;;;3.30;;
61096;SDS011;46977;50.936;6.908;2023-03-01T02:46:44;5.57;;;3.65;;
61096;SDS011;46977;50.936;6.908;2023-03-01T02:49:48;3.35;;;2.90;;
61096;SDS011;46977;50.936;6.908;2023-03-01T02:52:52;4.32;;;3.85;;
61096;SDS011;46977;50.936;6.908;2023-03-01T02:55:59;4.70;;;3.40;;
61096;SDS011;46977;50.936;6.908;2023-03-01T02:59:01;4.95;;;3.20;;
61096;SDS011;46977;50.936;6.908;2023-03-01T03:02:06;4.65;;;3.53;;
61096;SDS011;46977;50.936;6.908;2023-03-01T03:05:09;4.80;;;3.35;;
61096;SDS011;46977;50.936;6.908;2023-03-01T03:08:13;5.45;;;3.22;;
61096;SDS011;46977;50.936;6.908;2023-03-01T03:11:18;5.30;;;3.92;;
61096;SDS011;46977;50.936;6.908;2023-03-01T03:14:20;5.43;;;3.38;;
61096;SDS011;46977;50.936;6.908;2023-03-01T03:17:24;5.00;;;3.25;;
61096;SDS011;46977;50.936;6.908;2023-03-01T03:20:27;6.88;;;3.58;;
61096;SDS011;46977;50.936;6.908;2023-03-01T03:23:32;3.85;;;3.45;;
61096;SDS011;46977;50.936;6.908;2023-03-01T03:26:34;6.18;;;3.70;;
61096;SDS011;46977;50.936;6.908;2023-03-01T03:29:37;4.05;;;3.45;;
61096;SDS011;46977;50.936;6.908;2023-03-01T03:32:40;4.18;;;3.30;;
61096;SDS011;46977;50.936;6.908;2023-03-01T03:35:46;5.80;;;4.25;;
61096;SDS011;46977;50.936;6.908;2023-03-01T03:38:49;6.63;;;4.18;;
61096;SDS011;46977;50.936;6.908;2023-03-01T03:41:52;6.07;;;4.38;;
61096;SDS011;46977;50.936;6.908;2023-03-01T03:44:54;7.70;;;4.05;;
61096;SDS011;46977;50.936;6.908;2023-03-01T03:47:58;5.90;;;4.15;;
61096;SDS011;46977;50.936;6.908;2023-03-01T03:51:00;6.15;;;4.55;;
61096;SDS011;46977;50.936;6.908;2023-03-01T03:54:03;5.65;;;4.25;;
61096;SDS011;46977;50.936;6.908;2023-03-01T03:57:05;6.35;;;4.40;;
61096;SDS011;46977;50.936;6.908;2023-03-01T04:00:09;7.30;;;4.55;;
61096;SDS011;46977;50.936;6.908;2023-03-01T04:03:17;5.75;;;3.88;;
61096;SDS011;46977;50.936;6.908;2023-03-01T04:06:20;8.02;;;4.30;;
61096;SDS011;46977;50.936;6.908;2023-03-01T04:09:23;4.90;;;4.30;;
61096;SDS011;46977;50.936;6.908;2023-03-01T04:12:25;6.85;;;4.25;;
61096;SDS011;46977;50.936;6.908;2023-03-01T04:15:27;6.50;;;4.50;;
61096;SDS011;46977;50.936;6.908;2023-03-01T04:18:31;6.07;;;4.45;;
61096;SDS011;46977;50.936;6.908;2023-03-01T04:21:33;8.85;;;5.00;;
61096;SDS011;46977;50.936;6.908;2023-03-01T04:24:39;7.20;;;4.68;;
61096;SDS011;46977;50.936;6.908;2023-03-01T04:27:42;5.57;;;4.57;;
61096;SDS011;46977;50.936;6.908;2023-03-01T04:30:46;7.82;;;5.38;;
61096;SDS011;46977;50.936;6.908;2023-03-01T04:33:54;6.03;;;4.85;;
61096;SDS011;46977;50.936;6.908;2023-03-01T04:36:58;6.50;;;4.28;;
61096;SDS011;46977;50.936;6.908;2023-03-01T04:49:35;7.28;;;4.32;;
61096;SDS011;46977;50.936;6.908;2023-03-01T04:58:18;7.57;;;3.75;;
61096;SDS011;46977;50.936;6.908;2023-03-01T05:01:54;4.88;;;4.22;;
61096;SDS011;46977;50.936;6.908;2023-03-01T05:05:05;7.30;;;4.10;;
61096;SDS011;46977;50.936;6.908;2023-03-01T05:08:19;5.22;;;4.40;;
61096;SDS011;46977;50.936;6.908;2023-03-01T05:11:59;7.25;;;4.88;;
61096;SDS011;46977;50.936;6.908;2023-03-01T05:15:04;6.30;;;4.65;;
61096;SDS011;46977;50.936;6.908;2023-03-01T05:18:17;7.15;;;4.63;;
61096;SDS011;46977;50.936;6.908;2023-03-01T05:21:38;7.63;;;4.65;;
61096;SDS011;46977;50.936;6.908;2023-03-01T05:25:11;8.07;;;4.60;;
61096;SDS011;46977;50.936;6.908;2023-03-01T05:28:15;5.53;;;4.25;;
61096;SDS011;46977;50.936;6.908;2023-03-01T05:31:18;7.38;;;5.15;;
61096;SDS011;46977;50.936;6.908;2023-03-01T05:34:22;7.60;;;5.20;;
61096;SDS011;46977;50.936;6.908;2023-03-01T05:37:26;8.50;;;5.70;;
61096;SDS011;46977;50.936;6.908;2023-03-01T05:40:29;6.68;;;5.10;;
61096;SDS011;46977;50.936;6.908;2023-03-01T05:43:33;9.30;;;5.35;;
61096;SDS011;46977;50.936;6.908;2023-03-01T05:46:35;10.15;;;4.70;;
61096;SDS011;46977;50.936;6.908;2023-03-01T05:49:38;6.95;;;4.78;;
61096;SDS011;46977;50.936;6.908;2023-03-01T05:52:42;6.53;;;5.65;;
61096;SDS011;46977;50.936;6.908;2023-03-01T05:55:45;8.02;;;5.18;;
61096;SDS011;46977;50.936;6.908;2023-03-01T05:58:49;6.47;;;4.75;;
61096;SDS011;46977;50.936;6.908;2023-03-01T06:01:54;10.23;;;5.07;;
61096;SDS011;46977;50.936;6.908;2023-03-01T06:04:56;9.32;;;5.93;;
61096;SDS011;46977;50.936;6.908;2023-03-01T06:08:02;9.57;;;4.93;;
61096;SDS011;46977;50.936;6.908;2023-03-01T06:11:05;9.60;;;6.18;;
61096;SDS011;46977;50.936;6.908;2023-03-01T06:14:09;8.45;;;5.40;;
61096;SDS011;46977;50.936;6.908;2023-03-01T06:17:12;9.32;;;5.65;;
61096;SDS011;46977;50.936;6.908;2023-03-01T06:20:15;9.95;;;5.72;;
61096;SDS011;46977;50.936;6.908;2023-03-01T06:23:21;9.65;;;5.30;;
61096;SDS011;46977;50.936;6.908;2023-03-01T06:26:23;8.32;;;5.50;;
61096;SDS011;46977;50.936;6.908;2023-03-01T06:29:25;7.57;;;5.80;;
61096;SDS011;46977;50.936;6.908;2023-03-01T06:32:28;10.73;;;6.22;;
61096;SDS011;46977;50.936;6.908;2023-03-01T06:35:30;8.88;;;5.63;;
61096;SDS011;46977;50.936;6.908;2023-03-01T06:38:34;7.80;;;5.63;;
61096;SDS011;46977;50.936;6.908;2023-03-01T06:41:36;7.85;;;5.63;;
61096;SDS011;46977;50.936;6.908;2023-03-01T06:44:39;6.38;;;5.10;;
61096;SDS011;46977;50.936;6.908;2023-03-01T06:47:41;10.25;;;7.35;;
61096;SDS011;46977;50.936;6.908;2023-03-01T06:50:44;9.90;;;6.88;;
61096;SDS011;46977;50.936;6.908;2023-03-01T06:53:47;8.57;;;6.03;;
61096;SDS011;46977;50.936;6.908;2023-03-01T06:56:50;7.57;;;5.97;;
61096;SDS011;46977;50.936;6.908;2023-03-01T06:59:52;9.45;;;5.32;;
61096;SDS011;46977;50.936;6.908;2023-03-01T07:02:55;8.10;;;6.15;;
61096;SDS011;46977;50.936;6.908;2023-03-01T07:06:00;9.50;;;5.97;;
61096;SDS011;46977;50.936;6.908;2023-03-01T07:09:04;10.50;;;5.85;;
61096;SDS011;46977;50.936;6.908;2023-03-01T07:12:06;7.03;;;5.97;;
61096;SDS011;46977;50.936;6.908;2023-03-01T07:15:09;8.07;;;5.70;;
61096;SDS011;46977;50.936;6.908;2023-03-01T07:18:12;8.30;;;6.00;;
61096;SDS011;46977;50.936;6.908;2023-03-01T07:21:14;8.13;;;5.25;;
61096;SDS011;46977;50.936;6.908;2023-03-01T07:24:19;8.90;;;5.25;;
61096;SDS011;46977;50.936;6.908;2023-03-01T07:27:22;9.77;;;5.30;;
61096;SDS011;46977;50.936;6.908;2023-03-01T07:30:24;7.82;;;6.18;;
61096;SDS011;46977;50.936;6.908;2023-03-01T07:33:30;5.75;;;5.07;;
61096;SDS011;46977;50.936;6.908;2023-03-01T07:36:32;7.07;;;5.95;;
61096;SDS011;46977;50.936;6.908;2023-03-01T07:39:36;6.22;;;5.15;;
61096;SDS011;46977;50.936;6.908;2023-03-01T07:42:39;7.95;;;4.72;;
61096;SDS011;46977;50.936;6.908;2023-03-01T07:45:41;7.03;;;6.32;;
61096;SDS011;46977;50.936;6.908;2023-03-01T07:48:43;6.15;;;5.60;;
61096;SDS011;46977;50.936;6.908;2023-03-01T07:51:45;8.10;;;6.05;;
61096;SDS011;46977;50.936;6.908;2023-03-01T07:54:49;8.77;;;6.78;;
61096;SDS011;46977;50.936;6.908;2023-03-01T07:57:51;7.60;;;6.20;;
61096;SDS011;46977;50.936;6.908;2023-03-01T08:00:54;7.40;;;5.60;;
61096;SDS011;46977;50.936;6.908;2023-03-01T08:03:56;6.25;;;5.50;;
61096;SDS011;46977;50.936;6.908;2023-03-01T08:06:59;5.72;;;4.88;;
61096;SDS011;46977;50.936;6.908;2023-03-01T08:10:02;7.85;;;5.63;;
61096;SDS011;46977;50.936;6.908;2023-03-01T08:13:05;6.57;;;5.97;;
61096;SDS011;46977;50.936;6.908;2023-03-01T08:16:09;5.82;;;4.97;;
61096;SDS011;46977;50.936;6.908;2023-03-01T08:19:13;5.65;;;5.07;;
61096;SDS011;46977;50.936;6.908;2023-03-01T08:22:15;7.07;;;5.65;;
61096;SDS011;46977;50.936;6.908;2023-03-01T08:25:19;6.32;;;5.72;;
61096;SDS011;46977;50.936;6.908;2023-03-01T08:28:21;6.00;;;5.40;;
61096;SDS011;46977;50.936;6.908;2023-03-01T08:31:24;5.75;;;5.15;;
61096;SDS011;46977;50.936;6.908;2023-03-01T08:34:28;6.25;;;5.50;;
61096;SDS011;46977;50.936;6.908;2023-03-01T08:37:30;5.97;;;5.50;;
61096;SDS011;46977;50.936;6.908;2023-03-01T08:40:36;6.63;;;5.47;;
61096;SDS011;46977;50.936;6.908;2023-03-01T08:43:38;7.03;;;6.18;;
61096;SDS011;46977;50.936;6.908;2023-03-01T08:46:41;6.40;;;5.40;;
61096;SDS011;46977;50.936;6.908;2023-03-01T08:49:43;6.50;;;5.93;;
61096;SDS011;46977;50.936;6.908;2023-03-01T08:52:46;5.78;;;5.28;;
61096;SDS011;46977;50.936;6.908;2023-03-01T08:55:49;5.82;;;5.28;;
61096;SDS011;46977;50.936;6.908;2023-03-01T08:58:52;6.53;;;5.60;;
61096;SDS011;46977;50.936;6.908;2023-03-01T09:01:54;6.07;;;5.47;;
61096;SDS011;46977;50.936;6.908;2023-03-01T09:04:57;6.50;;;5.88;;
61096;SDS011;46977;50.936;6.908;2023-03-01T09:07:59;5.63;;;5.13;;
61096;SDS011;46977;50.936;6.908;2023-03-01T09:11:03;5.95;;;5.40;;
61096;SDS011;46977;50.936;6.908;2023-03-01T09:14:06;7.07;;;5.07;;
61096;SDS011;46977;50.936;6.908;2023-03-01T09:17:08;5.75;;;5.25;;
61096;SDS011;46977;50.936;6.908;2023-03-01T09:20:11;8.52;;;5.85;;
61096;SDS011;46977;50.936;6.908;2023-03-01T09:23:13;5.07;;;4.45;;
61096;SDS011;46977;50.936;6.908;2023-03-01T09:26:17;4.93;;;4.53;;
61096;SDS011;46977;50.936;6.908;2023-03-01T09:29:24;6.15;;;5.18;;
61096;SDS011;46977;50.936;6.908;2023-03-01T09:32:29;5.15;;;4.72;;
61096;SDS011;46977;50.936;6.908;2023-03-01T09:35:32;5.45;;;5.05;;
61096;SDS011;46977;50.936;6.908;2023-03-01T09:38:34;5.65;;;5.05;;
61096;SDS011;46977;50.936;6.908;2023-03-01T09:41:46;5.65;;;5.15;;
61096;SDS011;46977;50.936;6.908;2023-03-01T09:44:51;5.38;;;4.88;;
61096;SDS011;46977;50.936;6.908;2023-03-01T09:47:55;5.47;;;4.97;;
61096;SDS011;46977;50.936;6.908;2023-03-01T09:50:57;5.50;;;5.00;;
61096;SDS011;46977;50.936;6.908;2023-03-01T09:54:01;4.90;;;4.45;;
61096;SDS011;46977;50.936;6.908;2023-03-01T09:57:09;6.22;;;4.82;;
61096;SDS011;46977;50.936;6.908;2023-03-01T10:00:22;5.50;;;5.00;;
61096;SDS011;46977;50.936;6.908;2023-03-01T10:03:33;5.10;;;4.60;;
61096;SDS011;46977;50.936;6.908;2023-03-01T10:06:39;4.90;;;4.60;;
61096;SDS011;46977;50.936;6.908;2023-03-01T10:09:45;5.80;;;5.30;;
61096;SDS011;46977;50.936;6.908;2023-03-01T10:12:49;6.25;;;4.82;;
61096;SDS011;46977;50.936;6.908;2023-03-01T10:15:53;5.50;;;4.88;;
61096;SDS011;46977;50.936;6.908;2023-03-01T10:19:00;5.45;;;4.95;;
61096;SDS011;46977;50.936;6.908;2023-03-01T10:22:05;7.50;;;4.75;;
61096;SDS011;46977;50.936;6.908;2023-03-01T10:25:14;4.80;;;4.30;;
61096;SDS011;46977;50.936;6.908;2023-03-01T10:28:20;6.05;;;5.55;;
61096;SDS011;46977;50.936;6.908;2023-03-01T10:31:29;6.03;;;5.15;;
61096;SDS011;46977;50.936;6.908;2023-03-01T10:34:39;8.07;;;5.07;;
61096;SDS011;46977;50.936;6.908;2023-03-01T10:37:46;5.25;;;4.57;;
61096;SDS011;46977;50.936;6.908;2023-03-01T10:40:59;6.93;;;5.25;;
61096;SDS011;46977;50.936;6.908;2023-03-01T10:44:09;6.43;;;4.78;;
61096;SDS011;46977;50.936;6.908;2023-03-01T10:47:41;5.50;;;4.70;;
61096;SDS011;46977;50.936;6.908;2023-03-01T10:50:44;5.85;;;5.20;;
61096;SDS011;46977;50.936;6.908;2023-03-01T10:53:47;5.85;;;4.85;;
61096;SDS011;46977;50.936;6.908;2023-03-01T10:56:51;6.60;;;4.75;;
61096;SDS011;46977;50.936;6.908;2023-03-01T11:00:03;5.78;;;5.10;;
61096;SDS011;46977;50.936;6.908;2023-03-01T11:03:21;6.20;;;5.05;;
61096;SDS011;46977;50.936;6.908;2023-03-01T11:06:25;5.70;;;4.63;;
61096;SDS011;46977;50.936;6.908;2023-03-01T11:09:30;4.85;;;4.32;;
61096;SDS011;46977;50.936;6.908;2023-03-01T11:12:39;7.90;;;4.83;;
61096;SDS011;46977;50.936;6.908;2023-03-01T11:15:43;6.18;;;4.32;;
61096;SDS011;46977;50.936;6.908;2023-03-01T11:19:04;5.22;;;4.07;;
61096;SDS011;46977;50.936;6.908;2023-03-01T11:22:19;5.55;;;5.05;;
61096;SDS011;46977;50.936;6.908;2023-03-01T11:25:24;6.15;;;4.82;;
61096;SDS011;46977;50.936;6.908;2023-03-01T11:28:28;6.22;;;4.78;;
61096;SDS011;46977;50.936;6.908;2023-03-01T11:31:33;4.78;;;4.30;;
61096;SDS011;46977;50.936;6.908;2023-03-01T11:34:40;5.45;;;4.15;;
61096;SDS011;46977;50.936;6.908;2023-03-01T11:37:49;5.93;;;5.13;;
61096;SDS011;46977;50.936;6.908;2023-03-01T11:40:59;5.32;;;4.82;;
61096;SDS011;46977;50.936;6.908;2023-03-01T11:44:05;5.25;;;4.75;;
61096;SDS011;46977;50.936;6.908;2023-03-01T11:47:17;6.20;;;5.13;;
61096;SDS011;46977;50.936;6.908;2023-03-01T11:50:28;4.60;;;4.20;;
61096;SDS011;46977;50.936;6.908;2023-03-01T11:53:36;7.45;;;4.97;;
61096;SDS011;46977;50.936;6.908;2023-03-01T11:56:51;6.72;;;4.70;;
61096;SDS011;46977;50.936;6.908;2023-03-01T12:03:33;6.28;;;4.53;;
61096;SDS011;46977;50.936;6.908;2023-03-01T12:06:47;6.13;;;4.65;;
61096;SDS011;46977;50.936;6.908;2023-03-01T12:10:06;7.05;;;5.05;;
61096;SDS011;46977;50.936;6.908;2023-03-01T12:16:59;4.68;;;4.28;;
61096;SDS011;46977;50.936;6.908;2023-03-01T12:20:17;5.53;;;4.43;;
61096;SDS011;46977;50.936;6.908;2023-03-01T12:23:33;5.28;;;4.68;;
61096;SDS011;46977;50.936;6.908;2023-03-01T12:26:48;6.63;;;4.95;;
61096;SDS011;46977;50.936;6.908;2023-03-01T12:30:01;5.90;;;4.95;;
61096;SDS011;46977;50.936;6.908;2023-03-01T12:36:29;5.78;;;4.32;;
61096;SDS011;46977;50.936;6.908;2023-03-01T12:39:43;5.22;;;4.45;;
61096;SDS011;46977;50.936;6.908;2023-03-01T12:42:54;5.90;;;4.13;;
61096;SDS011;46977;50.936;6.908;2023-03-01T12:46:05;4.80;;;4.20;;
61096;SDS011;46977;50.936;6.908;2023-03-01T12:49:15;5.93;;;4.60;;
61096;SDS011;46977;50.936;6.908;2023-03-01T12:52:21;6.07;;;4.05;;
61096;SDS011;46977;50.936;6.908;2023-03-01T12:55:27;5.55;;;4.38;;
61096;SDS011;46977;50.936;6.908;2023-03-01T12:58:32;4.40;;;3.92;;
61096;SDS011;46977;50.936;6.908;2023-03-01T13:01:52;6.00;;;4.80;;
61096;SDS011;46977;50.936;6.908;2023-03-01T13:05:00;6.10;;;4.97;;
61096;SDS011;46977;50.936;6.908;2023-03-01T13:08:11;7.57;;;4.80;;
61096;SDS011;46977;50.936;6.908;2023-03-01T13:11:18;5.63;;;4.35;;
61096;SDS011;46977;50.936;6.908;2023-03-01T13:14:37;5.18;;;4.68;;
61096;SDS011;46977;50.936;6.908;2023-03-01T13:17:48;5.57;;;4.57;;
61096;SDS011;46977;50.936;6.908;2023-03-01T13:20:51;6.68;;;4.82;;
61096;SDS011;46977;50.936;6.908;2023-03-01T13:23:56;4.68;;;4.03;;
61096;SDS011;46977;50.936;6.908;2023-03-01T13:30:39;5.65;;;4.20;;
61096;SDS011;46977;50.936;6.908;2023-03-01T13:33:44;5.00;;;3.88;;
61096;SDS011;46977;50.936;6.908;2023-03-01T13:36:49;4.95;;;3.70;;
61096;SDS011;46977;50.936;6.908;2023-03-01T13:39:53;4.78;;;4.18;;
61096;SDS011;46977;50.936;6.908;2023-03-01T13:42:55;5.55;;;4.22;;
61096;SDS011;46977;50.936;6.908;2023-03-01T13:46:11;5.33;;;4.20;;
61096;SDS011;46977;50.936;6.908;2023-03-01T13:49:18;5.40;;;4.22;;
61096;SDS011;46977;50.936;6.908;2023-03-01T13:52:30;4.75;;;3.72;;
61096;SDS011;46977;50.936;6.908;2023-03-01T13:55:40;4.50;;;4.10;;
61096;SDS011;46977;50.936;6.908;2023-03-01T13:58:46;5.20;;;3.60;;
61096;SDS011;46977;50.936;6.908;2023-03-01T14:01:54;5.00;;;4.35;;
61096;SDS011;46977;50.936;6.908;2023-03-01T14:04:58;4.20;;;3.80;;
61096;SDS011;46977;50.936;6.908;2023-03-01T14:08:01;4.65;;;3.80;;
61096;SDS011;46977;50.936;6.908;2023-03-01T14:11:13;5.03;;;3.55;;
61096;SDS011;46977;50.936;6.908;2023-03-01T14:14:51;6.82;;;3.63;;
61096;SDS011;46977;50.936;6.908;2023-03-01T14:17:55;5.15;;;3.47;;
61096;SDS011;46977;50.936;6.908;2023-03-01T14:21:05;3.10;;;2.90;;
61096;SDS011;46977;50.936;6.908;2023-03-01T14:28:47;4.68;;;3.15;;
61096;SDS011;46977;50.936;6.908;2023-03-01T14:36:37;3.42;;;3.13;;
61096;SDS011;46977;50.936;6.908;2023-03-01T14:40:04;5.97;;;3.53;;
61096;SDS011;46977;50.936;6.908;2023-03-01T14:51:38;5.35;;;3.97;;
61096;SDS011;46977;50.936;6.908;2023-03-01T14:54:56;5.10;;;4.22;;
61096;SDS011;46977;50.936;6.908;2023-03-01T14:58:57;4.90;;;3.28;;
61096;SDS011;46977;50.936;6.908;2023-03-01T15:02:43;3.80;;;3.40;;
61096;SDS011;46977;50.936;6.908;2023-03-01T15:06:14;4.35;;;3.72;;
61096;SDS011;46977;50.936;6.908;2023-03-01T15:09:55;5.28;;;3.63;;
61096;SDS011;46977;50.936;6.908;2023-03-01T15:13:22;5.35;;;3.08;;
61096;SDS011;46977;50.936;6.908;2023-03-01T15:20:42;4.97;;;3.28;;
61096;SDS011;46977;50.936;6.908;2023-03-01T15:24:19;5.78;;;3.47;;
61096;SDS011;46977;50.936;6.908;2023-03-01T15:27:40;4.65;;;3.95;;
61096;SDS011;46977;50.936;6.908;2023-03-01T15:30:51;5.43;;;3.90;;
61096;SDS011;46977;50.936;6.908;2023-03-01T15:34:20;3.97;;;3.47;;
61096;SDS011;46977;50.936;6.908;2023-03-01T15:38:22;5.25;;;3.30;;
61096;SDS011;46977;50.936;6.908;2023-03-01T15:42:07;8.60;;;4.03;;
61096;SDS011;46977;50.936;6.908;2023-03-01T15:45:26;4.33;;;3.27;;
61096;SDS011;46977;50.936;6.908;2023-03-01T15:49:30;5.47;;;3.38;;
61096;SDS011;46977;50.936;6.908;2023-03-01T15:53:12;4.35;;;3.95;;
61096;SDS011;46977;50.936;6.908;2023-03-01T15:57:10;3.45;;;2.70;;
61096;SDS011;46977;50.936;6.908;2023-03-01T16:04:11;3.30;;;2.83;;
61096;SDS011;46977;50.936;6.908;2023-03-01T16:07:50;3.63;;;3.25;;
61096;SDS011;46977;50.936;6.908;2023-03-01T16:11:29;3.42;;;2.95;;
61096;SDS011;46977;50.936;6.908;2023-03-01T16:14:45;4.00;;;2.90;;
61096;SDS011;46977;50.936;6.908;2023-03-01T16:22:10;5.38;;;3.30;;
61096;SDS011;46977;50.936;6.908;2023-03-01T16:29:36;5.00;;;2.88;;
61096;SDS011;46977;50.936;6.908;2023-03-01T16:33:37;5.05;;;3.13;;
61096;SDS011;46977;50.936;6.908;2023-03-01T16:37:03;3.92;;;3.20;;
61096;SDS011;46977;50.936;6.908;2023-03-01T16:41:22;4.47;;;3.00;;
61096;SDS011;46977;50.936;6.908;2023-03-01T16:43:48;3.28;;;2.53;;
61096;SDS011;46977;50.936;6.908;2023-03-01T16:50:35;5.00;;;3.30;;
61096;SDS011;46977;50.936;6.908;2023-03-01T16:54:13;6.30;;;3.10;;
61096;SDS011;46977;50.936;6.908;2023-03-01T16:58:04;5.82;;;2.78;;
61096;SDS011;46977;50.936;6.908;2023-03-01T17:01:44;4.80;;;2.67;;
61096;SDS011;46977;50.936;6.908;2023-03-01T17:05:20;4.78;;;2.63;;
61096;SDS011;46977;50.936;6.908;2023-03-01T17:08:34;3.92;;;3.08;;
61096;SDS011;46977;50.936;6.908;2023-03-01T17:11:47;5.43;;;3.13;;
61096;SDS011;46977;50.936;6.908;2023-03-01T17:15:11;4.07;;;3.45;;
61096;SDS011;46977;50.936;6.908;2023-03-01T17:18:37;5.20;;;2.90;;
61096;SDS011;46977;50.936;6.908;2023-03-01T17:21:51;4.43;;;2.80;;
61096;SDS011;46977;50.936;6.908;2023-03-01T17:24:57;4.90;;;2.63;;
61096;SDS011;46977;50.936;6.908;2023-03-01T17:28:05;5.45;;;2.50;;
61096;SDS011;46977;50.936;6.908;2023-03-01T17:31:26;5.25;;;3.45;;
61096;SDS011;46977;50.936;6.908;2023-03-01T17:34:43;3.25;;;2.67;;
61096;SDS011;46977;50.936;6.908;2023-03-01T17:37:52;3.60;;;3.05;;
61096;SDS011;46977;50.936;6.908;2023-03-01T17:40:58;3.10;;;2.80;;
61096;SDS011;46977;50.936;6.908;2023-03-01T17:44:09;5.90;;;2.97;;
61096;SDS011;46977;50.936;6.908;2023-03-01T17:47:16;3.85;;;3.00;;
61096;SDS011;46977;50.936;6.908;2023-03-01T17:50:19;3.38;;;3.03;;
61096;SDS011;46977;50.936;6.908;2023-03-01T17:53:26;4.03;;;3.05;;
61096;SDS011;46977;50.936;6.908;2023-03-01T17:56:28;5.63;;;3.28;;
61096;SDS011;46977;50.936;6.908;2023-03-01T17:59:35;4.32;;;3.10;;
61096;SDS011;46977;50.936;6.908;2023-03-01T18:02:38;4.53;;;3.38;;
61096;SDS011;46977;50.936;6.908;2023-03-01T18:05:40;4.40;;;3.08;;
61096;SDS011;46977;50.936;6.908;2023-03-01T18:08:44;4.88;;;3.22;;
61096;SDS011;46977;50.936;6.908;2023-03-01T18:11:47;4.50;;;3.45;;
61096;SDS011;46977;50.936;6.908;2023-03-01T18:14:49;4.03;;;2.92;;
61096;SDS011;46977;50.936;6.908;2023-03-01T18:17:54;4.30;;;3.47;;
61096;SDS011;46977;50.936;6.908;2023-03-01T18:20:56;5.38;;;3.28;;
61096;SDS011;46977;50.936;6.908;2023-03-01T18:24:00;3.67;;;2.70;;
61096;SDS011;46977;50.936;6.908;2023-03-01T18:27:02;4.18;;;3.08;;
61096;SDS011;46977;50.936;6.908;2023-03-01T18:30:06;4.63;;;3.30;;
61096;SDS011;46977;50.936;6.908;2023-03-01T18:33:09;5.07;;;3.03;;
61096;SDS011;46977;50.936;6.908;2023-03-01T18:36:16;5.03;;;3.47;;
61096;SDS011;46977;50.936;6.908;2023-03-01T18:39:25;4.30;;;3.43;;
61096;SDS011;46977;50.936;6.908;2023-03-01T18:42:27;4.55;;;3.28;;
61096;SDS011;46977;50.936;6.908;2023-03-01T18:45:29;6.45;;;3.28;;
61096;SDS011;46977;50.936;6.908;2023-03-01T18:48:32;4.03;;;3.60;;
61096;SDS011;46977;50.936;6.908;2023-03-01T18:51:34;5.65;;;3.42;;
61096;SDS011;46977;50.936;6.908;2023-03-01T18:54:38;5.18;;;3.72;;
61096;SDS011;46977;50.936;6.908;2023-03-01T18:57:40;4.95;;;3.40;;
61096;SDS011;46977;50.936;6.908;2023-03-01T19:00:43;4.05;;;3.08;;
61096;SDS011;46977;50.936;6.908;2023-03-01T19:03:45;5.25;;;3.28;;
61096;SDS011;46977;50.936;6.908;2023-03-01T19:06:50;4.78;;;3.45;;
61096;SDS011;46977;50.936;6.908;2023-03-01T19:09:54;4.50;;;3.58;;
61096;SDS011;46977;50.936;6.908;2023-03-01T19:12:56;7.43;;;3.70;;
61096;SDS011;46977;50.936;6.908;2023-03-01T19:16:02;4.70;;;3.30;;
61096;SDS011;46977;50.936;6.908;2023-03-01T19:19:14;5.75;;;3.78;;
61096;SDS011;46977;50.936;6.908;2023-03-01T19:22:18;4.93;;;3.97;;
61096;SDS011;46977;50.936;6.908;2023-03-01T19:26:07;4.78;;;3.22;;
61096;SDS011;46977;50.936;6.908;2023-03-01T19:29:58;4.85;;;4.13;;
61096;SDS011;46977;50.936;6.908;2023-03-01T19:33:02;5.22;;;4.40;;
61096;SDS011;46977;50.936;6.908;2023-03-01T19:36:10;7.32;;;4.00;;
61096;SDS011;46977;50.936;6.908;2023-03-01T19:39:30;5.30;;;3.80;;
61096;SDS011;46977;50.936;6.908;2023-03-01T19:42:42;6.38;;;3.60;;
61096;SDS011;46977;50.936;6.908;2023-03-01T19:46:04;6.97;;;4.72;;
61096;SDS011;46977;50.936;6.908;2023-03-01T19:49:56;5.18;;;3.80;;
61096;SDS011;46977;50.936;6.908;2023-03-01T19:53:07;6.63;;;4.07;;
61096;SDS011;46977;50.936;6.908;2023-03-01T19:56:14;7.35;;;3.55;;
61096;SDS011;46977;50.936;6.908;2023-03-01T19:59:27;5.03;;;3.93;;
61096;SDS011;46977;50.936;6.908;2023-03-01T20:02:36;7.45;;;3.85;;
61096;SDS011;46977;50.936;6.908;2023-03-01T20:05:41;6.13;;;4.10;;